sensor_id;sensor_type;location;lat;lon;timestamp;pressure;altitude;pressure_sealevel;temperature;humidity
64064;BME280;50314;50.618;10.642;2023-02-14T00:00:08;98571.13;;;15.23;23.92
64064;BME280;50314;50.618;10.642;2023-02-14T00:02:34;98572.09;;;15.22;23.91
64064;BME280;50314;50.618;10.642;2023-02-14T00:04:59;98568.69;;;15.20;23.71
64064;BME280;50314;50.618;10.642;2023-02-14T00:07:25;98572.28;;;15.19;24.01
64064;BME280;50314;50.618;10.642;2023-02-14T00:09:50;98572.41;;;15.17;23.81
64064;BME280;50314;50.618;10.642;2023-02-14T00:12:16;98567.94;;;15.18;24.02
64064;BME280;50314;50.618;10.642;2023-02-14T00:14:41;98573.31;;;15.16;23.68
64064;BME280;50314;50.618;10.642;2023-02-14T00:17:25;98572.59;;;15.14;23.91
64064;BME280;50314;50.618;10.642;2023-02-14T00:19:51;98562.81;;;15.15;23.54
64064;BME280;50314;50.618;10.642;2023-02-14T00:22:16;98568.13;;;15.15;23.78
64064;BME280;50314;50.618;10.642;2023-02-14T00:24:42;98567.28;;;15.14;23.83
64064;BME280;50314;50.618;10.642;2023-02-14T00:27:07;98569.94;;;15.14;23.96
64064;BME280;50314;50.618;10.642;2023-02-14T00:29:32;98564.69;;;15.13;23.90
64064;BME280;50314;50.618;10.642;2023-02-14T00:31:58;98570.88;;;15.13;23.99
64064;BME280;50314;50.618;10.642;2023-02-14T00:34:24;98561.97;;;15.14;23.97
64064;BME280;50314;50.618;10.642;2023-02-14T00:36:50;98568.97;;;15.15;23.86
64064;BME280;50314;50.618;10.642;2023-02-14T00:39:17;98556.66;;;15.14;23.64
64064;BME280;50314;50.618;10.642;2023-02-14T00:41:43;98559.31;;;15.14;23.50
64064;BME280;50314;50.618;10.642;2023-02-14T00:44:09;98558.56;;;15.12;23.86
64064;BME280;50314;50.618;10.642;2023-02-14T00:46:35;98558.56;;;15.12;23.82
64064;BME280;50314;50.618;10.642;2023-02-14T00:49:01;98555.91;;;15.12;23.59
64064;BME280;50314;50.618;10.642;2023-02-14T00:51:27;98563.00;;;15.12;23.56
64064;BME280;50314;50.618;10.642;2023-02-14T00:53:52;98558.66;;;15.11;23.95
64064;BME280;50314;50.618;10.642;2023-02-14T00:56:18;98564.91;;;15.10;23.55
64064;BME280;50314;50.618;10.642;2023-02-14T00:58:44;98560.53;;;15.09;23.89
64064;BME280;50314;50.618;10.642;2023-02-14T01:01:10;98564.16;;;15.08;23.44
64064;BME280;50314;50.618;10.642;2023-02-14T01:03:36;98566.81;;;15.08;23.61
64064;BME280;50314;50.618;10.642;2023-02-14T01:06:02;98565.13;;;15.07;23.93
64064;BME280;50314;50.618;10.642;2023-02-14T01:08:28;98567.84;;;15.05;23.92
64064;BME280;50314;50.618;10.642;2023-02-14T01:10:54;98553.63;;;15.06;23.66
64064;BME280;50314;50.618;10.642;2023-02-14T01:13:20;98553.72;;;15.04;23.59
64064;BME280;50314;50.618;10.642;2023-02-14T01:15:47;98554.69;;;15.03;23.43
64064;BME280;50314;50.618;10.642;2023-02-14T01:18:14;98554.78;;;15.02;23.68
64064;BME280;50314;50.618;10.642;2023-02-14T01:20:40;98551.28;;;15.01;23.58
64064;BME280;50314;50.618;10.642;2023-02-14T01:23:05;98554.69;;;15.03;23.50
64064;BME280;50314;50.618;10.642;2023-02-14T01:25:31;98546.72;;;15.03;23.71
64064;BME280;50314;50.618;10.642;2023-02-14T01:27:57;98547.56;;;15.04;23.78
64064;BME280;50314;50.618;10.642;2023-02-14T01:30:23;98547.56;;;15.04;23.44
64064;BME280;50314;50.618;10.642;2023-02-14T01:32:49;98546.81;;;15.02;23.76
64064;BME280;50314;50.618;10.642;2023-02-14T01:35:14;98545.97;;;15.01;23.84
64064;BME280;50314;50.618;10.642;2023-02-14T01:37:40;98545.13;;;15.01;23.85
64064;BME280;50314;50.618;10.642;2023-02-14T01:40:07;98545.97;;;15.01;23.73
64064;BME280;50314;50.618;10.642;2023-02-14T01:42:34;98543.31;;;15.01;23.50
64064;BME280;50314;50.618;10.642;2023-02-14T01:45:20;98550.63;;;14.98;23.78
64064;BME280;50314;50.618;10.642;2023-02-14T01:47:50;98558.69;;;14.96;23.51
64064;BME280;50314;50.618;10.642;2023-02-14T01:50:29;98555.25;;;14.94;23.44
64064;BME280;50314;50.618;10.642;2023-02-14T01:53:01;98553.38;;;14.96;23.84
64064;BME280;50314;50.618;10.642;2023-02-14T01:55:31;98553.38;;;14.96;23.69
64064;BME280;50314;50.618;10.642;2023-02-14T01:58:05;98543.88;;;14.92;23.69
64064;BME280;50314;50.618;10.642;2023-02-14T02:00:33;98542.00;;;14.94;23.72
64064;BME280;50314;50.618;10.642;2023-02-14T02:03:18;98545.59;;;14.93;23.79
64064;BME280;50314;50.618;10.642;2023-02-14T02:05:47;98551.00;;;14.92;23.75
64064;BME280;50314;50.618;10.642;2023-02-14T02:08:14;98548.34;;;14.92;23.85
64064;BME280;50314;50.618;10.642;2023-02-14T02:10:40;98533.25;;;14.92;23.82
64064;BME280;50314;50.618;10.642;2023-02-14T02:13:07;98538.56;;;14.92;23.46
64064;BME280;50314;50.618;10.642;2023-02-14T02:15:41;98537.84;;;14.90;23.48
64064;BME280;50314;50.618;10.642;2023-02-14T02:21:09;98533.44;;;14.89;23.46
64064;BME280;50314;50.618;10.642;2023-02-14T02:49:07;98530.75;;;14.76;23.58
64064;BME280;50314;50.618;10.642;2023-02-14T02:51:52;98540.38;;;14.77;23.88
64064;BME280;50314;50.618;10.642;2023-02-14T02:54:42;98534.91;;;14.80;23.79
64064;BME280;50314;50.618;10.642;2023-02-14T02:57:24;98536.72;;;14.80;23.68
64064;BME280;50314;50.618;10.642;2023-02-14T02:59:52;98534.72;;;14.84;23.26
64064;BME280;50314;50.618;10.642;2023-02-14T03:02:37;98526.09;;;14.80;23.80
64064;BME280;50314;50.618;10.642;2023-02-14T03:05:26;98526.66;;;14.85;23.80
64064;BME280;50314;50.618;10.642;2023-02-14T03:07:55;98527.50;;;14.86;23.76
64064;BME280;50314;50.618;10.642;2023-02-14T03:10:23;98531.03;;;14.86;23.51
64064;BME280;50314;50.618;10.642;2023-02-14T03:15:31;98528.44;;;14.85;23.69
64064;BME280;50314;50.618;10.642;2023-02-14T03:26:47;98533.09;;;14.81;23.77
64064;BME280;50314;50.618;10.642;2023-02-14T03:29:42;98527.78;;;14.81;23.90
64064;BME280;50314;50.618;10.642;2023-02-14T03:32:13;98531.22;;;14.83;23.70
64064;BME280;50314;50.618;10.642;2023-02-14T03:34:50;98528.56;;;14.83;23.50
64064;BME280;50314;50.618;10.642;2023-02-14T03:42:57;98531.09;;;14.85;23.54
64064;BME280;50314;50.618;10.642;2023-02-14T03:45:31;98524.75;;;14.87;23.76
64064;BME280;50314;50.618;10.642;2023-02-14T03:48:02;98524.75;;;14.87;23.41
64064;BME280;50314;50.618;10.642;2023-02-14T03:50:30;98521.16;;;14.88;23.67
64064;BME280;50314;50.618;10.642;2023-02-14T03:52:58;98527.22;;;14.90;23.31
64064;BME280;50314;50.618;10.642;2023-02-14T03:55:29;98525.03;;;14.83;23.61
64064;BME280;50314;50.618;10.642;2023-02-14T03:58:04;98528.38;;;14.86;23.69
64064;BME280;50314;50.618;10.642;2023-02-14T04:00:36;98530.06;;;14.87;23.38
64064;BME280;50314;50.618;10.642;2023-02-14T04:03:09;98526.56;;;14.87;23.57
64064;BME280;50314;50.618;10.642;2023-02-14T04:05:38;98533.44;;;14.89;23.64
64064;BME280;50314;50.618;10.642;2023-02-14T04:08:09;98533.38;;;14.91;23.63
64064;BME280;50314;50.618;10.642;2023-02-14T04:10:35;98526.25;;;14.91;23.76
64064;BME280;50314;50.618;10.642;2023-02-14T04:13:01;98527.13;;;14.92;23.38
64064;BME280;50314;50.618;10.642;2023-02-14T04:15:26;98530.63;;;14.92;23.75
64064;BME280;50314;50.618;10.642;2023-02-14T04:17:52;98527.97;;;14.92;23.53
64064;BME280;50314;50.618;10.642;2023-02-14T04:20:36;98522.75;;;14.91;23.59
64064;BME280;50314;50.618;10.642;2023-02-14T04:23:02;98513.97;;;14.90;23.54
64064;BME280;50314;50.618;10.642;2023-02-14T04:25:28;98518.31;;;14.91;23.43
64064;BME280;50314;50.618;10.642;2023-02-14T04:27:53;98523.63;;;14.91;23.70
64064;BME280;50314;50.618;10.642;2023-02-14T04:30:19;98523.63;;;14.91;23.43
64064;BME280;50314;50.618;10.642;2023-02-14T04:32:47;98517.34;;;14.92;23.58
64064;BME280;50314;50.618;10.642;2023-02-14T04:35:15;98520.00;;;14.92;23.40
64064;BME280;50314;50.618;10.642;2023-02-14T04:37:40;98520.00;;;14.92;23.48
64064;BME280;50314;50.618;10.642;2023-02-14T04:40:06;98519.06;;;14.93;23.33
64064;BME280;50314;50.618;10.642;2023-02-14T04:42:32;98516.41;;;14.93;23.37
64064;BME280;50314;50.618;10.642;2023-02-14T04:44:57;98518.13;;;14.94;23.23
64064;BME280;50314;50.618;10.642;2023-02-14T04:47:23;98512.81;;;14.94;23.71
64064;BME280;50314;50.618;10.642;2023-02-14T04:49:48;98515.47;;;14.94;23.47
64064;BME280;50314;50.618;10.642;2023-02-14T04:52:14;98518.13;;;14.94;23.60
64064;BME280;50314;50.618;10.642;2023-02-14T04:54:40;98523.41;;;14.94;23.48
64064;BME280;50314;50.618;10.642;2023-02-14T04:57:05;98516.31;;;14.95;23.40
64064;BME280;50314;50.618;10.642;2023-02-14T04:59:30;98517.16;;;14.95;23.51
64064;BME280;50314;50.618;10.642;2023-02-14T05:01:56;98521.63;;;14.95;23.32
64064;BME280;50314;50.618;10.642;2023-02-14T05:04:21;98523.41;;;14.94;23.50
64064;BME280;50314;50.618;10.642;2023-02-14T05:06:52;98520.88;;;14.93;23.53
64064;BME280;50314;50.618;10.642;2023-02-14T05:09:18;98518.22;;;14.93;23.41
64064;BME280;50314;50.618;10.642;2023-02-14T05:11:43;98516.41;;;14.93;23.32
64064;BME280;50314;50.618;10.642;2023-02-14T05:14:08;98514.69;;;14.92;23.57
64064;BME280;50314;50.618;10.642;2023-02-14T05:16:34;98517.34;;;14.92;23.47
64064;BME280;50314;50.618;10.642;2023-02-14T05:19:00;98527.97;;;14.92;23.75
64064;BME280;50314;50.618;10.642;2023-02-14T05:21:25;98519.16;;;14.92;23.54
64064;BME280;50314;50.618;10.642;2023-02-14T05:23:52;98516.63;;;14.90;23.43
64064;BME280;50314;50.618;10.642;2023-02-14T05:26:17;98522.75;;;14.91;23.30
64064;BME280;50314;50.618;10.642;2023-02-14T05:28:42;98523.63;;;14.91;23.33
64064;BME280;50314;50.618;10.642;2023-02-14T05:31:08;98519.34;;;14.89;23.48
64064;BME280;50314;50.618;10.642;2023-02-14T05:33:34;98517.66;;;14.88;23.60
64064;BME280;50314;50.618;10.642;2023-02-14T05:36:00;98516.81;;;14.87;23.47
64064;BME280;50314;50.618;10.642;2023-02-14T05:38:27;98514.16;;;14.87;23.30
64064;BME280;50314;50.618;10.642;2023-02-14T05:40:53;98513.31;;;14.87;23.36
64064;BME280;50314;50.618;10.642;2023-02-14T05:43:18;98512.34;;;14.88;23.34
64064;BME280;50314;50.618;10.642;2023-02-14T05:45:43;98500.88;;;14.87;23.40
64064;BME280;50314;50.618;10.642;2023-02-14T05:48:09;98505.34;;;14.87;23.44
64064;BME280;50314;50.618;10.642;2023-02-14T05:50:34;98516.81;;;14.87;23.63
64064;BME280;50314;50.618;10.642;2023-02-14T05:53:01;98520.41;;;14.86;23.54
64064;BME280;50314;50.618;10.642;2023-02-14T05:55:26;98511.69;;;14.84;23.40
64064;BME280;50314;50.618;10.642;2023-02-14T05:57:52;98522.28;;;14.84;23.24
64064;BME280;50314;50.618;10.642;2023-02-14T06:00:18;98520.41;;;14.86;23.57
64064;BME280;50314;50.618;10.642;2023-02-14T06:02:43;98527.41;;;14.87;23.43
64064;BME280;50314;50.618;10.642;2023-02-14T06:05:09;98519.53;;;14.86;23.18
64064;BME280;50314;50.618;10.642;2023-02-14T06:07:34;98525.72;;;14.86;23.66
64064;BME280;50314;50.618;10.642;2023-02-14T06:10:00;98518.69;;;14.85;23.55
64064;BME280;50314;50.618;10.642;2023-02-14T06:12:25;98530.16;;;14.86;23.18
64064;BME280;50314;50.618;10.642;2023-02-14T06:14:50;98517.94;;;14.83;23.50
64064;BME280;50314;50.618;10.642;2023-02-14T06:17:16;98518.88;;;14.82;23.25
64064;BME280;50314;50.618;10.642;2023-02-14T06:19:41;98525.13;;;14.81;23.25
64064;BME280;50314;50.618;10.642;2023-02-14T06:22:07;98522.59;;;14.79;23.30
64064;BME280;50314;50.618;10.642;2023-02-14T06:24:33;98526.09;;;14.80;23.27
64064;BME280;50314;50.618;10.642;2023-02-14T06:26:58;98527.78;;;14.81;23.37
64064;BME280;50314;50.618;10.642;2023-02-14T06:29:24;98530.34;;;14.83;23.53
64064;BME280;50314;50.618;10.642;2023-02-14T06:31:49;98532.06;;;14.84;23.59
64064;BME280;50314;50.618;10.642;2023-02-14T06:34:15;98531.22;;;14.83;23.65
64064;BME280;50314;50.618;10.642;2023-02-14T06:36:40;98530.25;;;14.84;23.54
64064;BME280;50314;50.618;10.642;2023-02-14T06:39:06;98533.75;;;14.85;23.58
64064;BME280;50314;50.618;10.642;2023-02-14T06:41:31;98532.06;;;14.84;23.27
64064;BME280;50314;50.618;10.642;2023-02-14T06:43:56;98532.06;;;14.84;23.45
64064;BME280;50314;50.618;10.642;2023-02-14T06:46:22;98540.88;;;14.84;23.63
64064;BME280;50314;50.618;10.642;2023-02-14T06:48:47;98532.06;;;14.84;23.11
64064;BME280;50314;50.618;10.642;2023-02-14T06:51:13;98531.22;;;14.83;23.18
64064;BME280;50314;50.618;10.642;2023-02-14T06:53:39;98533.88;;;14.83;23.25
64064;BME280;50314;50.618;10.642;2023-02-14T06:56:04;98535.63;;;14.83;23.36
64064;BME280;50314;50.618;10.642;2023-02-14T06:58:30;98529.47;;;14.82;23.45
64064;BME280;50314;50.618;10.642;2023-02-14T07:00:57;98532.06;;;14.84;23.58
64064;BME280;50314;50.618;10.642;2023-02-14T07:03:24;98525.91;;;14.83;23.49
64064;BME280;50314;50.618;10.642;2023-02-14T07:05:50;98531.22;;;14.83;23.49
64064;BME280;50314;50.618;10.642;2023-02-14T07:08:16;98526.94;;;14.80;23.55
64064;BME280;50314;50.618;10.642;2023-02-14T07:10:41;98524.19;;;14.82;23.61
64064;BME280;50314;50.618;10.642;2023-02-14T07:13:07;98518.88;;;14.82;23.31
64064;BME280;50314;50.618;10.642;2023-02-14T07:15:32;98524.09;;;14.84;23.43
64064;BME280;50314;50.618;10.642;2023-02-14T07:17:57;98517.84;;;14.85;23.77
64064;BME280;50314;50.618;10.642;2023-02-14T07:20:23;98513.38;;;14.85;23.59
64064;BME280;50314;50.618;10.642;2023-02-14T07:22:49;98522.09;;;14.87;23.84
64064;BME280;50314;50.618;10.642;2023-02-14T07:25:15;98519.47;;;14.87;23.75
64064;BME280;50314;50.618;10.642;2023-02-14T07:27:40;98518.50;;;14.88;23.79
64064;BME280;50314;50.618;10.642;2023-02-14T07:30:07;98514.03;;;14.89;23.84
64064;BME280;50314;50.618;10.642;2023-02-14T07:32:33;98516.69;;;14.89;23.60
64064;BME280;50314;50.618;10.642;2023-02-14T07:34:58;98516.69;;;14.89;23.82
64064;BME280;50314;50.618;10.642;2023-02-14T07:37:24;98505.22;;;14.88;23.80
64064;BME280;50314;50.618;10.642;2023-02-14T07:39:49;98507.03;;;14.88;23.63
64064;BME280;50314;50.618;10.642;2023-02-14T07:42:14;98514.88;;;14.89;23.73
64064;BME280;50314;50.618;10.642;2023-02-14T07:44:40;98510.47;;;14.90;23.88
64064;BME280;50314;50.618;10.642;2023-02-14T07:47:08;98512.16;;;14.91;23.83
64064;BME280;50314;50.618;10.642;2023-02-14T07:49:34;98499.72;;;14.91;23.66
64064;BME280;50314;50.618;10.642;2023-02-14T07:52:00;98505.03;;;14.91;23.61
64064;BME280;50314;50.618;10.642;2023-02-14T07:54:26;98493.59;;;14.91;23.86
64064;BME280;50314;50.618;10.642;2023-02-14T07:56:51;98500.50;;;14.93;23.82
64064;BME280;50314;50.618;10.642;2023-02-14T07:59:17;98496.03;;;14.94;23.96
64064;BME280;50314;50.618;10.642;2023-02-14T08:01:42;98499.53;;;14.94;23.86
64064;BME280;50314;50.618;10.642;2023-02-14T08:04:09;98493.28;;;14.95;23.97
64064;BME280;50314;50.618;10.642;2023-02-14T08:06:34;98500.19;;;14.98;23.94
64064;BME280;50314;50.618;10.642;2023-02-14T08:09:00;98499.25;;;14.99;23.92
64064;BME280;50314;50.618;10.642;2023-02-14T08:11:25;98505.41;;;14.99;24.08
64064;BME280;50314;50.618;10.642;2023-02-14T08:14:10;98501.81;;;15.00;24.20
64064;BME280;50314;50.618;10.642;2023-02-14T08:16:35;98500.84;;;15.01;23.85
64064;BME280;50314;50.618;10.642;2023-02-14T08:19:02;98499.81;;;15.04;23.92
64064;BME280;50314;50.618;10.642;2023-02-14T08:21:28;98494.41;;;15.06;24.17
64064;BME280;50314;50.618;10.642;2023-02-14T08:23:54;98490.81;;;15.07;23.97
64064;BME280;50314;50.618;10.642;2023-02-14T08:26:20;98492.50;;;15.08;24.24
64064;BME280;50314;50.618;10.642;2023-02-14T08:28:46;98496.78;;;15.10;24.04
64064;BME280;50314;50.618;10.642;2023-02-14T08:31:11;98499.31;;;15.12;23.92
64064;BME280;50314;50.618;10.642;2023-02-14T08:33:37;98491.34;;;15.12;24.00
64064;BME280;50314;50.618;10.642;2023-02-14T08:36:02;98492.97;;;15.14;24.06
64064;BME280;50314;50.618;10.642;2023-02-14T08:38:28;98489.34;;;15.15;23.93
64064;BME280;50314;50.618;10.642;2023-02-14T08:40:58;98488.50;;;15.15;24.23
64064;BME280;50314;50.618;10.642;2023-02-14T08:43:24;98487.47;;;15.17;23.89
64064;BME280;50314;50.618;10.642;2023-02-14T08:45:55;98490.13;;;15.17;24.31
64064;BME280;50314;50.618;10.642;2023-02-14T08:48:20;98495.31;;;15.19;24.02
64064;BME280;50314;50.618;10.642;2023-02-14T08:50:47;98493.44;;;15.21;23.86
64064;BME280;50314;50.618;10.642;2023-02-14T08:53:14;98495.13;;;15.22;23.97
64064;BME280;50314;50.618;10.642;2023-02-14T08:55:40;98493.22;;;15.24;24.09
64064;BME280;50314;50.618;10.642;2023-02-14T08:58:06;98497.56;;;15.25;24.14
64064;BME280;50314;50.618;10.642;2023-02-14T09:00:32;98491.31;;;15.26;24.14
64064;BME280;50314;50.618;10.642;2023-02-14T09:02:58;98496.53;;;15.27;24.15
64064;BME280;50314;50.618;10.642;2023-02-14T09:05:26;98482.31;;;15.28;24.05
64064;BME280;50314;50.618;10.642;2023-02-14T09:07:52;98483.91;;;15.31;23.92
64064;BME280;50314;50.618;10.642;2023-02-14T09:10:20;98487.31;;;15.33;23.84
64064;BME280;50314;50.618;10.642;2023-02-14T09:12:45;98479.34;;;15.33;23.98
64064;BME280;50314;50.618;10.642;2023-02-14T09:15:11;98479.25;;;15.35;23.96
64064;BME280;50314;50.618;10.642;2023-02-14T09:17:37;98480.88;;;15.37;23.97
64064;BME280;50314;50.618;10.642;2023-02-14T09:20:14;98478.41;;;15.34;24.33
64064;BME280;50314;50.618;10.642;2023-02-14T09:22:39;98476.22;;;15.41;24.18
64064;BME280;50314;50.618;10.642;2023-02-14T09:25:05;98468.06;;;15.44;24.19
64064;BME280;50314;50.618;10.642;2023-02-14T09:27:30;98468.91;;;15.44;23.88
64064;BME280;50314;50.618;10.642;2023-02-14T09:29:56;98465.22;;;15.47;23.94
64064;BME280;50314;50.618;10.642;2023-02-14T09:32:21;98464.25;;;15.48;23.88
64064;BME280;50314;50.618;10.642;2023-02-14T09:34:47;98466.78;;;15.49;24.14
64064;BME280;50314;50.618;10.642;2023-02-14T09:37:31;98464.13;;;15.49;24.16
64064;BME280;50314;50.618;10.642;2023-02-14T09:39:56;98461.28;;;15.53;24.17
64064;BME280;50314;50.618;10.642;2023-02-14T09:45:24;98455.97;;;15.53;24.01
64064;BME280;50314;50.618;10.642;2023-02-14T09:48:12;98464.69;;;15.55;24.02
64064;BME280;50314;50.618;10.642;2023-02-14T09:50:46;98466.19;;;15.59;24.05
64064;BME280;50314;50.618;10.642;2023-02-14T10:01:15;98454.75;;;15.71;23.92
64064;BME280;50314;50.618;10.642;2023-02-14T10:09:14;98456.25;;;15.75;23.94
64064;BME280;50314;50.618;10.642;2023-02-14T10:11:44;98452.22;;;15.82;23.86
64064;BME280;50314;50.618;10.642;2023-02-14T10:16:42;98458.09;;;15.87;23.86
64064;BME280;50314;50.618;10.642;2023-02-14T10:19:18;98451.81;;;15.88;23.86
64064;BME280;50314;50.618;10.642;2023-02-14T10:21:54;98457.84;;;15.90;23.81
64064;BME280;50314;50.618;10.642;2023-02-14T10:24:26;98455.81;;;15.94;23.89
64064;BME280;50314;50.618;10.642;2023-02-14T10:26:55;98451.59;;;15.91;24.09
64064;BME280;50314;50.618;10.642;2023-02-14T10:29:22;98451.91;;;16.00;23.87
64064;BME280;50314;50.618;10.642;2023-02-14T10:31:51;98448.19;;;16.02;23.66
64064;BME280;50314;50.618;10.642;2023-02-14T10:34:47;98445.41;;;16.04;23.93
64064;BME280;50314;50.618;10.642;2023-02-14T10:37:38;98440.88;;;16.06;23.79
64064;BME280;50314;50.618;10.642;2023-02-14T10:40:22;98436.97;;;16.11;23.81
64064;BME280;50314;50.618;10.642;2023-02-14T10:51:20;98423.34;;;16.16;23.89
64064;BME280;50314;50.618;10.642;2023-02-14T10:56:59;98413.34;;;16.19;23.80
64064;BME280;50314;50.618;10.642;2023-02-14T10:59:38;98421.00;;;16.24;23.64
64064;BME280;50314;50.618;10.642;2023-02-14T11:02:12;98412.72;;;16.29;22.96
64064;BME280;50314;50.618;10.642;2023-02-14T11:04:38;98411.41;;;16.34;22.56
64064;BME280;50314;50.618;10.642;2023-02-14T11:07:17;98409.84;;;16.32;21.96
64064;BME280;50314;50.618;10.642;2023-02-14T11:09:43;98411.19;;;16.37;22.05
64064;BME280;50314;50.618;10.642;2023-02-14T11:12:09;98417.28;;;16.39;22.04
64064;BME280;50314;50.618;10.642;2023-02-14T11:14:38;98413.78;;;16.39;21.82
64064;BME280;50314;50.618;10.642;2023-02-14T11:17:27;98414.00;;;16.36;21.98
64064;BME280;50314;50.618;10.642;2023-02-14T11:20:02;98414.63;;;16.39;22.01
64064;BME280;50314;50.618;10.642;2023-02-14T11:22:32;98409.81;;;16.44;22.24
64064;BME280;50314;50.618;10.642;2023-02-14T11:25:24;98409.09;;;16.42;22.29
64064;BME280;50314;50.618;10.642;2023-02-14T11:28:02;98401.81;;;16.44;22.40
64064;BME280;50314;50.618;10.642;2023-02-14T11:30:38;98403.34;;;16.49;22.46
64064;BME280;50314;50.618;10.642;2023-02-14T11:33:06;98403.84;;;16.54;22.48
64064;BME280;50314;50.618;10.642;2023-02-14T11:35:34;98394.66;;;16.58;22.33
64064;BME280;50314;50.618;10.642;2023-02-14T11:38:03;98392.63;;;16.61;22.59
64064;BME280;50314;50.618;10.642;2023-02-14T11:40:33;98395.09;;;16.64;22.47
64064;BME280;50314;50.618;10.642;2023-02-14T11:45:41;98389.31;;;16.71;22.49
64064;BME280;50314;50.618;10.642;2023-02-14T11:50:39;98387.91;;;16.78;22.69
64064;BME280;50314;50.618;10.642;2023-02-14T11:53:07;98388.13;;;16.75;22.67
64064;BME280;50314;50.618;10.642;2023-02-14T11:55:35;98382.19;;;16.84;22.67
64064;BME280;50314;50.618;10.642;2023-02-14T11:58:02;98380.06;;;16.89;22.43
64064;BME280;50314;50.618;10.642;2023-02-14T12:00:30;98375.22;;;16.94;22.38
64064;BME280;50314;50.618;10.642;2023-02-14T12:02:58;98376.47;;;17.01;22.52
64064;BME280;50314;50.618;10.642;2023-02-14T12:05:42;98376.25;;;17.04;22.63
64064;BME280;50314;50.618;10.642;2023-02-14T12:08:09;98370.13;;;17.15;22.79
64064;BME280;50314;50.618;10.642;2023-02-14T12:10:36;98360.69;;;17.22;22.78
64064;BME280;50314;50.618;10.642;2023-02-14T12:15:48;98355.31;;;17.35;22.45
64064;BME280;50314;50.618;10.642;2023-02-14T12:23:35;98356.72;;;17.52;21.45
64064;BME280;50314;50.618;10.642;2023-02-14T12:26:34;98352.97;;;17.54;21.25
64064;BME280;50314;50.618;10.642;2023-02-14T12:29:24;98354.44;;;17.58;21.40
64064;BME280;50314;50.618;10.642;2023-02-14T12:31:58;98350.94;;;17.69;20.97
64064;BME280;50314;50.618;10.642;2023-02-14T12:34:25;98348.66;;;17.76;21.18
64064;BME280;50314;50.618;10.642;2023-02-14T12:37:08;98345.88;;;17.77;20.96
64064;BME280;50314;50.618;10.642;2023-02-14T12:47:49;98333.53;;;17.99;21.28
64064;BME280;50314;50.618;10.642;2023-02-14T12:53:34;98327.25;;;18.11;21.06
64064;BME280;50314;50.618;10.642;2023-02-14T12:56:08;98325.69;;;18.20;21.54
64064;BME280;50314;50.618;10.642;2023-02-14T12:58:48;98321.81;;;18.24;21.10
64064;BME280;50314;50.618;10.642;2023-02-14T13:01:54;98320.47;;;18.29;21.17
64064;BME280;50314;50.618;10.642;2023-02-14T13:07:45;98319.59;;;18.40;21.51
64064;BME280;50314;50.618;10.642;2023-02-14T13:10:22;98321.53;;;18.49;21.28
64064;BME280;50314;50.618;10.642;2023-02-14T13:13:05;98311.59;;;18.51;21.28
64064;BME280;50314;50.618;10.642;2023-02-14T13:16:21;98309.28;;;18.58;21.25
64064;BME280;50314;50.618;10.642;2023-02-14T13:21:03;98311.91;;;18.69;21.72
64064;BME280;50314;50.618;10.642;2023-02-14T13:23:35;98305.47;;;18.72;21.21
64064;BME280;50314;50.618;10.642;2023-02-14T13:26:10;98292.72;;;18.75;21.49
64064;BME280;50314;50.618;10.642;2023-02-14T13:28:37;98289.56;;;18.82;21.64
64064;BME280;50314;50.618;10.642;2023-02-14T13:31:04;98290.16;;;18.85;21.82
64064;BME280;50314;50.618;10.642;2023-02-14T13:33:32;98285.41;;;18.89;21.60
64064;BME280;50314;50.618;10.642;2023-02-14T13:36:05;98278.13;;;18.91;21.26
64064;BME280;50314;50.618;10.642;2023-02-14T13:38:37;98274.34;;;18.93;21.73
64064;BME280;50314;50.618;10.642;2023-02-14T13:41:05;98274.81;;;18.98;21.84
64064;BME280;50314;50.618;10.642;2023-02-14T13:46:21;98270.06;;;19.02;21.46
64064;BME280;50314;50.618;10.642;2023-02-14T13:49:31;98269.34;;;19.00;21.82
64064;BME280;50314;50.618;10.642;2023-02-14T13:52:00;98268.09;;;19.04;21.57
64064;BME280;50314;50.618;10.642;2023-02-14T13:55:00;98270.06;;;19.02;21.47
64064;BME280;50314;50.618;10.642;2023-02-14T13:57:34;98267.00;;;19.07;21.80
64064;BME280;50314;50.618;10.642;2023-02-14T14:02:51;98263.94;;;19.11;21.78
64064;BME280;50314;50.618;10.642;2023-02-14T14:21:24;98237.84;;;19.15;19.79
64064;BME280;50314;50.618;10.642;2023-02-14T14:24:11;98231.03;;;19.11;19.80
64064;BME280;50314;50.618;10.642;2023-02-14T14:26:42;98227.28;;;19.13;20.24
64064;BME280;50314;50.618;10.642;2023-02-14T14:31:51;98227.53;;;19.10;20.31
64064;BME280;50314;50.618;10.642;2023-02-14T14:34:22;98228.63;;;19.08;20.23
64064;BME280;50314;50.618;10.642;2023-02-14T14:36:50;98226.94;;;19.07;20.02
64064;BME280;50314;50.618;10.642;2023-02-14T14:39:29;98240.44;;;19.05;19.83
64064;BME280;50314;50.618;10.642;2023-02-14T14:41:56;98233.28;;;19.06;20.09
64064;BME280;50314;50.618;10.642;2023-02-14T14:44:29;98230.72;;;19.04;20.22
64064;BME280;50314;50.618;10.642;2023-02-14T14:46:58;98231.84;;;19.01;20.16
64064;BME280;50314;50.618;10.642;2023-02-14T14:49:24;98227.47;;;19.00;20.31
64064;BME280;50314;50.618;10.642;2023-02-14T14:51:50;98232.94;;;18.99;20.06
64064;BME280;50314;50.618;10.642;2023-02-14T14:54:18;98231.53;;;18.95;19.91
64064;BME280;50314;50.618;10.642;2023-02-14T14:56:55;98230.06;;;18.91;19.98
64064;BME280;50314;50.618;10.642;2023-02-14T14:59:35;98233.97;;;18.87;20.25
64064;BME280;50314;50.618;10.642;2023-02-14T15:02:03;98232.28;;;18.86;20.45
64064;BME280;50314;50.618;10.642;2023-02-14T15:04:34;98232.53;;;18.83;20.11
64064;BME280;50314;50.618;10.642;2023-02-14T15:07:31;98232.06;;;18.77;19.82
64064;BME280;50314;50.618;10.642;2023-02-14T15:09:57;98236.56;;;18.77;19.75
64064;BME280;50314;50.618;10.642;2023-02-14T15:12:24;98239.34;;;18.75;19.67